Thunder radar more information blitzortung!


Radar de pluja more information rain snow radar


Visita la nostra xarxa de llocs de meteo:

Template documentation
and downloads

And another site



No particular awareness of the weather is required.    There are no Weather-warnings

Pagina Historial Weather Underground text

Diari Resum Agost 1, 2017 Unitats:  Imperial    Mètric   Tant
« Previous Dia
SegĂźent Dia »
Diari Setmana Mensual Anual Personalitzada
  Maxima: Minima: Media:
Temperatura: 91.4 °F 71.4 °F 80.4 °F
Punt de rosada: 72 °F 60.6 °F 68.9 °F
Humitat: 86 % 38 % 70 %
Wind Speed: 11.5 mph 0 mph 3.1 mph
RĂ fegues de vent: 11.5 mph - -
Vent:- - SE
Pression baro: 30 in 29.8 in -
Precipitacions: 0 in    
Historical Graphs
 
 
Dades de taula per Agost 1, 2017
Temps Temperatura Punt de rosada Pression baro Vent Wind Speed RĂ fegues de vent Humitat Rainfall Rate (Hourly)
11:01 76.3 °F 70 °F 29.8 in ENE 4.6 mph   81 % 0 in
11:06 80.2 °F 70 °F 29.9 in NNW 2.3 mph 2.3 mph 71 % 0 in
11:11 80.8 °F 69.6 °F 29.9 in South 3.5 mph 3.5 mph 69 % 0 in
11:16 81.3 °F 70.2 °F 29.9 in SW 3.5 mph 3.5 mph 69 % 0 in
11:21 81.1 °F 70 °F 29.9 in SSW 2.3 mph 2.3 mph 69 % 0 in
11:26 81.1 °F 70 °F 29.9 in WSW 2.3 mph 2.3 mph 69 % 0 in
11:31 81 °F 69.8 °F 29.9 in SW 4.6 mph 4.6 mph 69 % 0 in
11:36 80.8 °F 69.6 °F 29.9 in North 2 mph 2 mph 69 % 0 in
11:41 80.8 °F 69.6 °F 29.9 in SW 2.3 mph 2.3 mph 69 % 0 in
11:46 80.8 °F 69.6 °F 29.9 in WSW 2.3 mph 2.3 mph 69 % 0 in
11:51 80.8 °F 69.6 °F 29.9 in SW 3.5 mph 3.5 mph 69 % 0 in
11:56 81.1 °F 70 °F 29.9 in West 2.3 mph 2.3 mph 69 % 0 in
12:01 81.7 °F 70.5 °F 29.9 in WSW 2.4 mph 2.4 mph 69 % 0 in
12:06 82.2 °F 70.5 °F 29.9 in West 1.2 mph   68 % 0 in
12:11 82.2 °F 70.5 °F 29.9 in West 4.6 mph 4.6 mph 68 % 0 in
12:16 82 °F 70 °F 29.9 in WSW 2.3 mph 2.3 mph 67 % 0 in
12:21 82.2 °F 70.2 °F 29.9 in WSW 2.6 mph 2.6 mph 67 % 0 in
12:26 82 °F 70 °F 29.9 in NE 2.3 mph 2.3 mph 67 % 0 in
12:27 82 °F 70 °F 29.9 in NE 2.3 mph 2.3 mph 67 % 0 in
12:32 81.9 °F 69.8 °F 29.9 in ESE 4.6 mph 4.6 mph 67 % 0 in
12:37 81 °F 69.4 °F 29.9 in ESE 3.5 mph 3.5 mph 68 % 0 in
12:42 80.4 °F 69.3 °F 29.9 in ENE 3.8 mph 3.8 mph 69 % 0 in
12:47 80.6 °F 70 °F 29.9 in NNE 2.3 mph 2.3 mph 70 % 0 in
12:52 80.6 °F 69.4 °F 29.9 in NNE 5.8 mph 5.8 mph 69 % 0 in
12:57 80.6 °F 69.4 °F 29.9 in North 5.8 mph 5.8 mph 69 % 0 in
13:02 80.8 °F 69.6 °F 29.9 in NNE 4.6 mph 4.6 mph 69 % 0 in
13:07 80.4 °F 69.6 °F 29.9 in ENE 3.5 mph 3.5 mph 70 % 0 in
13:12 80.4 °F 69.6 °F 29.9 in NW 2.3 mph 2.3 mph 70 % 0 in
13:17 80.8 °F 70.2 °F 29.9 in ENE 2.3 mph 2.3 mph 70 % 0 in
13:22 81 °F 70.3 °F 29.9 in SW 1.2 mph 1.2 mph 70 % 0 in
13:27 81.5 °F 70.3 °F 29.9 in South 2.4 mph 2.4 mph 69 % 0 in
13:32 82.9 °F 71.2 °F 29.9 in SSE 3.5 mph 3.5 mph 68 % 0 in
13:37 83.3 °F 71.6 °F 29.9 in NNE 3.8 mph 3.8 mph 68 % 0 in
13:38 83.1 °F 71.1 °F 29.9 in ENE 2.9 mph 2.9 mph 67 % 0 in
13:42 82.2 °F 70.2 °F 29.9 in East 3.5 mph 3.5 mph 67 % 0 in
13:47 82.6 °F 70.5 °F 29.9 in ESE 4.6 mph 4.6 mph 67 % 0 in
13:52 82.9 °F 70 °F 29.9 in East 4.6 mph 4.6 mph 65 % 0 in
13:57 83.5 °F 70.5 °F 29.9 in ESE 2.3 mph 2.3 mph 65 % 0 in
14:02 83.7 °F 70.2 °F 29.9 in ESE 4.6 mph 4.6 mph 64 % 0 in
14:07 83.7 °F 70.2 °F 29.9 in ESE 5.8 mph 5.8 mph 64 % 0 in
14:12 84.6 °F 70.5 °F 29.9 in NNE 3.5 mph 3.5 mph 63 % 0 in
14:17 85.3 °F 70.9 °F 29.9 in ENE 2.3 mph 2.3 mph 62 % 0 in
14:22 86.4 °F 70.9 °F 29.9 in South 1.4 mph 1.4 mph 60 % 0 in
14:27 86.4 °F 71.2 °F 29.9 in NNE 3.5 mph 3.5 mph 61 % 0 in
14:32 86.4 °F 70.9 °F 29.9 in East 2.4 mph 2.4 mph 60 % 0 in
14:37 86.9 °F 70.3 °F 29.9 in NNE 3.5 mph 3.5 mph 58 % 0 in
14:42 88.2 °F 71.1 °F 29.9 in East 3.5 mph 3.5 mph 57 % 0 in
14:47 89.1 °F 71.2 °F 29.9 in NNE 6.4 mph 6.4 mph 56 % 0 in
14:52 89.8 °F 71.4 °F 29.9 in NE 4.6 mph 4.6 mph 55 % 0 in
14:57 90.1 °F 70.7 °F 29.9 in ENE 8.1 mph 8.1 mph 53 % 0 in
15:02 90.1 °F 70.7 °F 29.9 in NNW 5.6 mph 5.6 mph 53 % 0 in
15:07 90.5 °F 68.7 °F 29.9 in WSW 7.6 mph 7.6 mph 49 % 0 in
15:12 91 °F 67.5 °F 29.9 in SSW 4.6 mph 4.6 mph 46 % 0 in
15:17 91.4 °F 66.4 °F 29.9 in SSE 5.8 mph 5.8 mph 44 % 0 in
15:22 91.2 °F 65.7 °F 29.9 in West 4.6 mph 4.6 mph 43 % 0 in
15:27 90.9 °F 64.6 °F 29.9 in West 10.4 mph 10.4 mph 42 % 0 in
15:32 90.1 °F 64 °F 29.9 in South 5.8 mph 5.8 mph 42 % 0 in
15:37 90 °F 64.6 °F 29.9 in WSW 5.8 mph 5.8 mph 43 % 0 in
15:42 90.5 °F 63 °F 29.9 in WSW 11.5 mph 11.5 mph 40 % 0 in
15:47 90.5 °F 61.3 °F 29.9 in WNW 8.1 mph 8.1 mph 38 % 0 in
15:52 90.3 °F 61.3 °F 29.9 in NW 5.8 mph 5.8 mph 38 % 0 in
15:57 90 °F 61.7 °F 29.9 in West 6.9 mph 6.9 mph 39 % 0 in
16:02 89.6 °F 60.6 °F 29.9 in WSW 5.4 mph 5.4 mph 38 % 0 in
16:07 89.4 °F 61.2 °F 29.9 in WNW 5.8 mph 5.8 mph 39 % 0 in
16:12 89.2 °F 61 °F 29.9 in SW 5.8 mph 5.8 mph 39 % 0 in
16:17 89.1 °F 61 °F 29.9 in WSW 5.4 mph 5.4 mph 39 % 0 in
16:22 88.9 °F 62.1 °F 29.9 in WSW 5.8 mph 5.8 mph 41 % 0 in
16:27 88.5 °F 61.9 °F 29.9 in West 5.8 mph 5.8 mph 41 % 0 in
16:32 89.1 °F 62.2 °F 30 in SW 6 mph 6 mph 41 % 0 in
16:37 89.2 °F 63.1 °F 30 in SW 4.6 mph 4.6 mph 42 % 0 in
16:42 89.1 °F 63.7 °F 30 in West 3.5 mph 3.5 mph 43 % 0 in
16:47 88.2 °F 64.8 °F 30 in SW 6.9 mph 6.9 mph 46 % 0 in
16:52 87.3 °F 65.8 °F 30 in WSW 6.9 mph 6.9 mph 49 % 0 in
16:57 86.4 °F 66 °F 30 in NE 4.6 mph 4.6 mph 51 % 0 in
17:02 86 °F 66.9 °F 29.9 in West 3.5 mph 3.5 mph 53 % 0 in
17:03 86 °F 66.9 °F 29.9 in West 4 mph 4 mph 53 % 0 in
17:08 85.8 °F 67.3 °F 29.9 in ESE 2.3 mph 2.3 mph 54 % 0 in
17:13 84.9 °F 68.5 °F 29.9 in ESE 4.6 mph 4.6 mph 58 % 0 in
17:18 84.2 °F 68.4 °F 29.9 in NNE 4.3 mph 4.3 mph 59 % 0 in
17:23 83.7 °F 68.7 °F 29.9 in East 4.6 mph 4.6 mph 61 % 0 in
17:28 82.8 °F 69.3 °F 29.9 in ENE 4.6 mph 4.6 mph 64 % 0 in
17:33 82.2 °F 68.7 °F 29.9 in NE 4.6 mph 4.6 mph 64 % 0 in
17:38 81.9 °F 68.9 °F 29.9 in ENE 4.6 mph 4.6 mph 65 % 0 in
17:43 81.5 °F 69.1 °F 29.9 in NE 5.6 mph 5.6 mph 66 % 0 in
17:48 81.1 °F 69.1 °F 29.9 in SE 4 mph 4 mph 67 % 0 in
17:53 80.8 °F 69.3 °F 29.9 in NNE 4.6 mph 4.6 mph 68 % 0 in
17:58 80.4 °F 69.3 °F 29.9 in NE 2.3 mph 2.3 mph 69 % 0 in
18:03 80.2 °F 69.6 °F 29.9 in ENE 4.6 mph 4.6 mph 70 % 0 in
18:08 80.2 °F 70 °F 29.9 in NNE 4.6 mph 4.6 mph 71 % 0 in
18:13 80.1 °F 69.8 °F 29.9 in ENE 3.5 mph 3.5 mph 71 % 0 in
18:18 80.1 °F 69.8 °F 29.9 in East 3.5 mph 3.5 mph 71 % 0 in
18:23 80.2 °F 70 °F 29.9 in NNE 5.8 mph 5.8 mph 71 % 0 in
18:28 80.2 °F 70 °F 29.9 in East 4.9 mph 4.9 mph 71 % 0 in
18:33 80.2 °F 70 °F 29.9 in North 3.6 mph 3.6 mph 71 % 0 in
18:38 80.2 °F 70.3 °F 29.9 in NNE 4.6 mph 4.6 mph 72 % 0 in
18:43 80.2 °F 71.2 °F 29.9 in East 3.8 mph 3.8 mph 74 % 0 in
18:48 79.9 °F 70.9 °F 29.9 in ENE 4.6 mph 4.6 mph 74 % 0 in
18:53 79.7 °F 70.7 °F 29.9 in North 2.3 mph 2.3 mph 74 % 0 in
18:58 79.7 °F 71.4 °F 29.9 in SE 5.8 mph 5.8 mph 76 % 0 in
19:03 79.9 °F 71.6 °F 29.9 in East 3.5 mph 3.5 mph 76 % 0 in
19:08 79.7 °F 71.8 °F 29.9 in ESE 3.5 mph 3.5 mph 77 % 0 in
19:13 79.7 °F 71.8 °F 29.9 in East 3.5 mph 3.5 mph 77 % 0 in
19:15 74.8 °F 69.6 °F 30 in SW 1 mph 1 mph 84 % 0 in
19:18 79.5 °F 71.2 °F 29.9 in ENE 6.9 mph 6.9 mph 76 % 0 in
19:23 79.2 °F 71.2 °F 29.9 in NNE 5.8 mph 5.8 mph 77 % 0 in
19:25 74.8 °F 70 °F 30 in Calm   1 mph 85 % 0 in
19:28 79.2 °F 71.2 °F 29.9 in NNE 4.6 mph 4.6 mph 77 % 0 in
19:33 79.3 °F 72 °F 29.9 in ENE 6.9 mph 6.9 mph 78 % 0 in
19:35 74.7 °F 69.8 °F 30 in Calm     85 % 0 in
19:38 79.3 °F 72 °F 29.9 in NNE 5.8 mph 5.8 mph 78 % 0 in
19:43 79.3 °F 72 °F 29.9 in ENE 3.5 mph 3.5 mph 78 % 0 in
19:45 74.1 °F 69.3 °F 30 in Calm   1 mph 85 % 0 in
19:48 79.3 °F 71.4 °F 29.9 in ESE 5.4 mph 5.4 mph 77 % 0 in
19:53 79.3 °F 71.4 °F 29.9 in ENE 5.4 mph 5.4 mph 77 % 0 in
19:55 74.1 °F 69.3 °F 30 in SW 2 mph 2 mph 85 % 0 in
19:58 79.5 °F 71.8 °F 29.9 in North 3.5 mph 3.5 mph 77 % 0 in
20:03 79.5 °F 71.2 °F 29.9 in ENE 4.6 mph 4.6 mph 76 % 0 in
20:05 74.3 °F 69.8 °F 30 in Calm     86 % 0 in
20:08 79.5 °F 71.2 °F 29.9 in North 5.8 mph 5.8 mph 76 % 0 in
20:13 79.5 °F 71.2 °F 29.9 in NNE 3.8 mph 3.8 mph 76 % 0 in
20:15 74.1 °F 69.6 °F 30 in Calm     86 % 0 in
20:18 79.5 °F 71.2 °F 29.9 in ENE 3.5 mph 3.5 mph 76 % 0 in
20:23 79.5 °F 71.2 °F 29.9 in NNE 3.5 mph 3.5 mph 76 % 0 in
20:25 74.3 °F 69.8 °F 30 in NNW 1 mph 2 mph 86 % 0 in
20:28 79.5 °F 71.2 °F 29.9 in NE 2.3 mph 2.3 mph 76 % 0 in
20:33 79.5 °F 71.2 °F 29.9 in NE 3.5 mph 3.5 mph 76 % 0 in
20:35 73.8 °F 69.3 °F 30 in NNE 1 mph 3 mph 86 % 0 in
20:38 79.5 °F 71.2 °F 29.9 in NNE 3.5 mph 3.5 mph 76 % 0 in
20:43 79.3 °F 71.1 °F 29.9 in NNE 4.6 mph 4.6 mph 76 % 0 in
20:45 73.4 °F 69.1 °F 30 in Calm     86 % 0 in
20:48 79.3 °F 71.1 °F 29.9 in NNE 2.3 mph 2.3 mph 76 % 0 in
20:53 79.2 °F 70.9 °F 29.9 in NNE 2.3 mph 2.3 mph 76 % 0 in
20:55 73 °F 68.5 °F 30 in Calm   1 mph 86 % 0 in
20:58 79.2 °F 70.9 °F 29.9 in Calm     76 % 0 in
21:03 79.2 °F 70.9 °F 29.9 in Calm     76 % 0 in
21:05 72.7 °F 67.8 °F 30 in Calm   1 mph 85 % 0 in
21:08 78.8 °F 71.1 °F 29.9 in NE 1.2 mph 1.2 mph 77 % 0 in
21:13 78.8 °F 71.1 °F 29.9 in Calm     77 % 0 in
21:15 72.9 °F 68.2 °F 30 in Calm     85 % 0 in
21:18 78.8 °F 71.1 °F 29.9 in Calm     77 % 0 in
21:23 78.6 °F 70.9 °F 29.9 in ESE 2.3 mph 2.3 mph 77 % 0 in
21:25 72.5 °F 67.6 °F 30 in SSW 1 mph 2 mph 85 % 0 in
21:28 78.6 °F 71.2 °F 29.9 in East 2.6 mph 2.6 mph 78 % 0 in
21:33 78.6 °F 71.2 °F 29.9 in ESE 2.9 mph 2.9 mph 78 % 0 in
21:35 72.7 °F 67.3 °F 30 in NNE 2 mph 2 mph 83 % 0 in
21:38 78.4 °F 71.1 °F 29.9 in ENE 1.2 mph 1.2 mph 78 % 0 in
21:43 78.1 °F 70.7 °F 29.9 in NE 1.2 mph   78 % 0 in
21:45 72.9 °F 66.4 °F 30 in North 2 mph 5 mph 80 % 0 in
21:48 78.1 °F 70.7 °F 29.9 in ENE 1.4 mph 1.4 mph 78 % 0 in
21:53 77.9 °F 70.5 °F 29.9 in NE 2.3 mph 2.3 mph 78 % 0 in
21:55 73 °F 65.5 °F 30 in NNE 3 mph 6 mph 77 % 0 in
21:58 77.9 °F 70.5 °F 29.9 in NNE 1.4 mph 1.4 mph 78 % 0 in
22:03 77.7 °F 70.3 °F 30 in SSW 1.2 mph 1.2 mph 78 % 0 in
22:05 73.2 °F 64.8 °F 30 in NNE 2 mph 7 mph 75 % 0 in
22:07 77.5 °F 70.2 °F 30 in Calm     78 % 0 in
22:08 77.5 °F 70.2 °F 30 in Calm     78 % 0 in
22:12 77.5 °F 70.2 °F 30 in Calm     78 % 0 in
22:15 73.4 °F 64.2 °F 30 in North 2 mph 6 mph 73 % 0 in
22:17 77.4 °F 70.3 °F 30 in Calm     79 % 0 in
22:18 77.4 °F 70.3 °F 30 in Calm     79 % 0 in
22:22 77.2 °F 70.2 °F 30 in Calm     79 % 0 in
22:25 73.4 °F 64.2 °F 30 in NNW 2 mph 5 mph 73 % 0 in
22:27 77.2 °F 70.2 °F 30 in ENE 1.2 mph 1.2 mph 79 % 0 in
22:32 77 °F 70 °F 30 in Calm     79 % 0 in
22:35 73.2 °F 63.7 °F 30 in NNW 2 mph 4 mph 72 % 0 in
22:37 77 °F 70 °F 30 in NE 2.3 mph 2.3 mph 79 % 0 in
22:42 76.8 °F 70.5 °F 30 in NE 2.2 mph 2.2 mph 81 % 0 in
22:45 72.5 °F 63.7 °F 30 in Calm   2 mph 74 % 0 in
22:47 76.6 °F 70.3 °F 30 in NE 3.5 mph 3.5 mph 81 % 0 in
22:52 76.5 °F 70.2 °F 30 in NE 2.9 mph 2.9 mph 81 % 0 in
22:55 72.3 °F 63.7 °F 30 in Calm   3 mph 74 % 0 in
22:57 76.3 °F 70.3 °F 30 in NE 1.2 mph 1.2 mph 82 % 0 in
23:02 76.1 °F 70.2 °F 30 in NE 2.3 mph 2.3 mph 82 % 0 in
23:05 72 °F 63.7 °F 30 in Calm   2 mph 75 % 0 in
23:07 76.1 °F 70.2 °F 30 in East 1.2 mph 1.2 mph 82 % 0 in
23:12 76.1 °F 70.2 °F 30 in NNE 2.3 mph 2.3 mph 82 % 0 in
23:15 71.8 °F 64.2 °F 30 in Calm   2 mph 77 % 0 in
23:17 75.9 °F 70 °F 30 in North 2.3 mph 2.3 mph 82 % 0 in
23:22 75.9 °F 70 °F 30 in NW 1.2 mph   82 % 0 in
23:25 71.8 °F 64.9 °F 30 in Calm     79 % 0 in
23:27 75.7 °F 70.2 °F 30 in NW 1.2 mph   83 % 0 in
23:32 75.6 °F 70 °F 30 in SW 1.6 mph 1.6 mph 83 % 0 in
23:35 71.8 °F 65.7 °F 30 in Calm     81 % 0 in
23:37 75.2 °F 69.6 °F 30 in SW 1.2 mph 1.2 mph 83 % 0 in
23:42 75.2 °F 69.6 °F 30 in Calm     83 % 0 in
23:45 71.6 °F 65.8 °F 30 in Calm   2 mph 82 % 0 in
23:47 75.4 °F 70 °F 30 in Calm     83 % 0 in
23:52 75.2 °F 70 °F 30 in Calm     84 % 0 in
23:55 71.4 °F 65.7 °F 30 in Calm   1 mph 82 % 0 in
23:57 75.2 °F 70 °F 30 in Calm     84 % 0 in
Meteo Sesrovires
Elogis d' Weather Underground - 3.5 mb

Guio original per  Jim McMurry - jmcmurry@mwt.net Adaptat per a la plantilla per  Wim van der Kuil - Leuven-Template.eu

Trobareu la nostra informacio del temps tambe a:

Weather Underground

AWEKAS